Unbenanntes Dokument
Flugplatz Bielefeld Platzwetter

 

Aktuelles Platzwetter am Flugplatz Bielefeld EDLI

16.11.18 ,03:13 Uhr

METAR EDLI 160312Z 10006KT 9999 04/03 Q1028

 

Windwerte

 

Wolkenuntergrenzen

Wind aktuell:100 ° mit 6 kt
Wind 10 min Extrem:
80 ° bis 130 ° mit 4 kt bis 7 kt
Seitenwindkomponente: -0.8 kt
Wolkengrenze 1:
Wolkengrenze 2:
Wolkengrenze 3:

Webcam

Temperatur

       

Sichtweite:

20.000 Meter

4.1 °C
Taupunkt: 3.6 °C
Luftfeuchtigkeit: 96 %

Luftdruck:

QNH: 1028 hPa (30.36 in Hg)
QFE: 1011 hPa (29.85 in Hg)

Diese Daten werden automatisch ermittelt bzw. übertragen und sind nicht geprüft. Für die Richtigkeit wird daher keine Gewähr übernommen. Sie ersetzen im übrigen nicht die Flugwetterberatung. Alle Zeitangaben beziehen sich auf UTC. Die Seite wird einmal die Minute aktualisiert! Sollten Sie ein ältere Seite haben, so drücken Sie bitte auf den Reload Button Ihres Browsers!